Aérodrome :
LOGIN :

S'inscrire | Disclaimer

   EN    FR    IT 

 










Légende :    VFR   VFR Marginal   IFR   IFR Intensif   IFR Très Intensif
Visi : 
Plafond : 
>= 8 km
>= 3000ft
5 à 8 km
1000 à 3000 ft
1500m à 5 km
500 à 1000 ft
800 à 1500m
200 à 500 ft
< 800m
< 200 ft
Symboles :   Orages  Brouillard  Fortes neiges  Fortes précipitations  Vent > 20 kt
SIGMETs :   Divers  Orages  Givrage  Turbulence  Onde Orograph.  Cendres Volcan.






- Altitude de l'aérodrome : 665 ft
- Code IATA : NOC


EIKN - Connaught / Knock- Ireland West

DERNIER METAR :
  • 241700Z 28012KT 9999 FEW017 FEW020CB 04/02 Q1004 NOSIG

METARs EXPIRÉS :
  • 241630Z 28011KT 250V330 9999 -SHRA SCT017 SCT020CB 05/03 Q1004 NOSIG
  • 241600Z 29018KT 9999 FEW018 SCT020CB 06/02 Q1004 NOSIG
  • 241530Z 29018KT 9999 FEW020CB SCT036 05/02 Q1003 NOSIG
  • 241500Z 28020G31KT 9999 SCT022CB SCT049 06/02 Q1003 NOSIG
  • 241430Z 29023G33KT 9999 FEW020CB 06/01 Q1003 NOSIG

TAF TAF EIKN
Valide du 24 à 12h jusqu'au 25 à 12h UTC


241100Z 2412/2512 29020G33KT 9999 FEW012 BKN020
TEMPO 2412/2413 BKN012
TEMPO 2415/2512 -SHRAGS SCT018CB
BECMG 2418/2420 25012KT
PROB40
TEMPO 2421/2512 27015G27KT 3000 SHGS BKN007



MET'MAP, la Météo Aéronautique d'un coup d'oeil ! - Copyright ORBIFLY Décembre 2007 - Disclaimer

ORBIFLY MET'MAP TEAM :

Programmation & Développement : Alexandra Zaïnal
Sur une idée originale de : Baudouin d'Aumeries
Assistance à la programmation : Marc-Olivier Méhu
Soutien technique & logistique : Manuel Goepfert

Contact : metmap@orbifly.com




SOURCES & CREDITS :

   NOAA